createdAt,value
2023-04-28T00:01:42.162Z,88.39
2023-04-28T00:04:24.383Z,88.52
2023-04-28T00:06:59.718Z,89.33
2023-04-28T00:09:42.820Z,89.98
2023-04-28T00:12:30.069Z,90.68
2023-04-28T00:15:18.067Z,90.37
2023-04-28T00:17:45.102Z,90.22
2023-04-28T00:20:12.604Z,91.03
2023-04-28T00:22:39.531Z,92.18
2023-04-28T00:25:07.220Z,91.55
2023-04-28T00:27:34.928Z,90.72
2023-04-28T00:30:02.369Z,92.01
2023-04-28T00:32:29.730Z,90.67
2023-04-28T00:34:57.895Z,89.47
2023-04-28T00:37:24.796Z,89.80
2023-04-28T00:39:58.132Z,90.28
2023-04-28T00:42:25.081Z,89.68
2023-04-28T00:44:52.051Z,90.33
2023-04-28T00:47:19.792Z,91.79
2023-04-28T00:49:49.770Z,92.61
2023-04-28T00:52:16.699Z,92.94
2023-04-28T00:54:43.851Z,93.88
2023-04-28T00:57:13.084Z,93.22
2023-04-28T00:59:40.119Z,93.63
2023-04-28T01:02:07.888Z,94.25
2023-04-28T01:04:36.047Z,93.70
2023-04-28T01:07:17.056Z,93.20
2023-04-28T01:09:55.100Z,92.84
2023-04-28T01:12:46.288Z,92.51
2023-04-28T01:15:36.582Z,92.24
2023-04-28T01:18:20.389Z,92.37
2023-04-28T01:20:47.458Z,91.71
2023-04-28T01:23:16.312Z,90.30
2023-04-28T01:25:44.235Z,90.47
2023-04-28T01:28:11.940Z,89.96
2023-04-28T01:30:38.866Z,89.93
2023-04-28T01:33:05.968Z,90.31
2023-04-28T01:35:32.923Z,91.41
2023-04-28T01:37:59.927Z,92.66
2023-04-28T01:40:26.888Z,93.89
2023-04-28T01:42:53.853Z,94.96
2023-04-28T01:45:20.872Z,96.29
2023-04-28T01:47:47.830Z,96.34
2023-04-28T01:50:14.900Z,96.10
2023-04-28T01:52:41.817Z,95.45
2023-04-28T01:55:09.050Z,93.63
2023-04-28T01:57:36.682Z,93.61
2023-04-28T02:00:05.253Z,93.83
2023-04-28T02:02:32.301Z,93.95
2023-04-28T02:04:59.445Z,94.05
2023-04-28T02:07:26.583Z,93.69
2023-04-28T02:09:53.531Z,93.36
2023-04-28T02:12:20.431Z,92.81
2023-04-28T02:14:47.432Z,92.91
2023-04-28T02:17:14.316Z,93.22
2023-04-28T02:19:41.222Z,93.12
2023-04-28T02:22:08.326Z,92.78
2023-04-28T02:24:37.293Z,93.48
2023-04-28T02:27:05.931Z,95.03
2023-04-28T02:29:32.883Z,94.51
2023-04-28T02:31:59.889Z,94.76
2023-04-28T02:34:27.050Z,94.48
2023-04-28T02:36:53.974Z,93.05
2023-04-28T02:39:22.834Z,92.28
2023-04-28T02:41:49.730Z,91.63
2023-04-28T02:44:16.803Z,91.42
2023-04-28T02:46:43.951Z,91.07
2023-04-28T02:49:11.015Z,91.59
2023-04-28T02:51:37.960Z,91.37
2023-04-28T02:54:04.931Z,91.48
2023-04-28T02:56:31.988Z,91.63
2023-04-28T02:58:58.887Z,91.71
2023-04-28T03:01:26.333Z,90.06
2023-04-28T03:03:53.415Z,90.94
2023-04-28T03:06:20.567Z,90.57
2023-04-28T03:08:47.494Z,91.12
2023-04-28T03:11:14.413Z,89.66
2023-04-28T03:13:41.717Z,89.49
2023-04-28T03:16:08.759Z,89.39
2023-04-28T03:18:36.243Z,89.03
2023-04-28T03:21:03.194Z,88.83
2023-04-28T03:23:30.112Z,89.29
2023-04-28T03:25:57.034Z,88.91
2023-04-28T03:28:23.978Z,89.15
2023-04-28T03:30:50.874Z,88.81
2023-04-28T03:33:17.803Z,88.36
2023-04-28T03:35:44.753Z,89.08
2023-04-28T03:38:11.873Z,88.52
2023-04-28T03:40:38.819Z,88.81
2023-04-28T03:43:05.827Z,88.71
2023-04-28T03:45:33.109Z,88.54
2023-04-28T03:48:00.057Z,88.27
2023-04-28T03:50:27.118Z,87.76
2023-04-28T03:52:54.065Z,88.47
2023-04-28T03:55:21.003Z,87.28
2023-04-28T03:57:48.145Z,87.36
2023-04-28T04:00:15.298Z,86.64
2023-04-28T04:02:42.840Z,86.41
2023-04-28T04:05:10.315Z,86.11
2023-04-28T04:07:37.497Z,85.88
2023-04-28T04:10:04.873Z,86.33
2023-04-28T04:12:32.219Z,86.22
2023-04-28T04:14:59.158Z,86.28
2023-04-28T04:17:26.056Z,85.39
2023-04-28T04:19:52.988Z,84.83
2023-04-28T04:22:19.868Z,84.23
2023-04-28T04:24:47.187Z,83.10
2023-04-28T04:27:14.177Z,81.96
2023-04-28T04:29:41.185Z,81.55
2023-04-28T04:32:08.131Z,81.10
2023-04-28T04:34:35.045Z,80.22
2023-04-28T04:37:01.961Z,80.58
2023-04-28T04:39:28.867Z,80.48
2023-04-28T04:41:55.838Z,79.79
2023-04-28T04:44:22.762Z,79.12
2023-04-28T04:46:49.749Z,78.14
2023-04-28T04:49:16.662Z,77.86
2023-04-28T04:51:43.612Z,77.94
2023-04-28T04:54:10.536Z,77.56
2023-04-28T04:56:37.686Z,75.09
2023-04-28T04:59:04.678Z,73.59
2023-04-28T05:01:31.596Z,70.58
2023-04-28T05:03:58.752Z,70.12
2023-04-28T05:06:25.891Z,68.33
2023-04-28T05:08:52.846Z,66.70
2023-04-28T05:11:19.798Z,65.30
2023-04-28T05:13:46.724Z,65.18
2023-04-28T05:16:13.705Z,62.98
2023-04-28T05:18:40.810Z,63.21
2023-04-28T05:21:07.780Z,62.72
2023-04-28T05:23:34.691Z,59.97
2023-04-28T05:26:01.652Z,57.65
2023-04-28T05:28:28.606Z,59.18
2023-04-28T05:30:55.522Z,54.58
2023-04-28T05:33:24.263Z,59.07
2023-04-28T05:35:52.280Z,54.16
2023-04-28T05:38:20.197Z,52.61
2023-04-28T05:40:48.570Z,54.10
2023-04-28T05:43:15.493Z,50.47
2023-04-28T05:45:42.538Z,47.27
2023-04-28T05:48:09.468Z,45.75
2023-04-28T05:50:38.817Z,45.63
2023-04-28T05:53:06.082Z,43.85
2023-04-28T05:55:34.093Z,46.71
2023-04-28T05:58:01.049Z,44.35
2023-04-28T06:00:28.049Z,43.95
2023-04-28T06:02:55.267Z,42.75
2023-04-28T06:05:23.811Z,43.35
2023-04-28T06:07:53.071Z,40.84
2023-04-28T06:10:22.997Z,43.43
2023-04-28T06:12:49.908Z,41.27
2023-04-28T06:15:16.997Z,43.33
2023-04-28T06:17:43.953Z,46.10
2023-04-28T06:20:14.069Z,42.51
2023-04-28T06:22:41.701Z,43.35
2023-04-28T06:25:09.150Z,44.44
2023-04-28T06:27:36.052Z,45.13
2023-04-28T06:30:03.034Z,42.87
2023-04-28T06:32:29.964Z,42.02
2023-04-28T06:34:58.378Z,40.50
2023-04-28T06:37:25.506Z,41.98
2023-04-28T06:39:52.453Z,41.25
2023-04-28T06:42:20.615Z,41.76
2023-04-28T06:44:47.551Z,41.98
2023-04-28T06:47:14.512Z,42.62
2023-04-28T06:49:44.109Z,39.96
2023-04-28T06:52:11.168Z,40.56
2023-04-28T06:54:38.736Z,38.20
2023-04-28T06:57:05.872Z,40.88
2023-04-28T06:59:32.830Z,39.68
2023-04-28T07:01:59.872Z,38.51
2023-04-28T07:04:27.558Z,41.34
2023-04-28T07:06:54.750Z,40.02
2023-04-28T07:09:21.795Z,39.12
2023-04-28T07:11:48.773Z,38.05
2023-04-28T07:14:16.110Z,40.88
2023-04-28T07:16:43.677Z,41.00
2023-04-28T07:19:10.668Z,40.16
2023-04-28T07:21:37.566Z,40.63
2023-04-28T07:24:04.607Z,39.26
2023-04-28T07:26:33.796Z,38.95
2023-04-28T07:29:00.891Z,38.04
2023-04-28T07:31:27.965Z,38.59
2023-04-28T07:33:55.712Z,39.07
2023-04-28T07:36:23.021Z,39.58
2023-04-28T07:38:50.154Z,38.38
2023-04-28T07:41:17.836Z,39.09
2023-04-28T07:43:44.969Z,37.58
2023-04-28T07:46:13.092Z,36.95
2023-04-28T07:48:41.650Z,36.99
2023-04-28T07:51:08.590Z,37.70
2023-04-28T07:53:36.715Z,38.35
2023-04-28T07:56:03.980Z,39.26
2023-04-28T07:58:31.584Z,37.45
2023-04-28T08:00:58.500Z,36.90
2023-04-28T08:03:25.572Z,37.15
2023-04-28T08:05:52.739Z,37.91
2023-04-28T08:08:19.764Z,35.72
2023-04-28T08:10:46.689Z,34.67
2023-04-28T08:13:13.735Z,37.74
2023-04-28T08:15:40.699Z,37.17
2023-04-28T08:18:07.891Z,35.74
2023-04-28T08:20:35.005Z,35.75
2023-04-28T08:23:01.970Z,33.77
2023-04-28T08:25:28.979Z,34.05
2023-04-28T08:27:57.523Z,33.82
2023-04-28T08:30:24.966Z,34.34
2023-04-28T08:32:52.114Z,33.08
2023-04-28T08:35:19.546Z,31.52
2023-04-28T08:37:49.613Z,35.13
2023-04-28T08:40:16.710Z,31.53
2023-04-28T08:42:46.481Z,32.34
2023-04-28T08:45:14.852Z,30.66
2023-04-28T08:47:46.210Z,31.24
2023-04-28T08:50:14.831Z,30.94
2023-04-28T08:52:43.059Z,31.61
2023-04-28T08:55:12.981Z,32.09
2023-04-28T08:57:49.659Z,33.98
2023-04-28T09:00:16.816Z,33.73
2023-04-28T09:02:44.034Z,33.25
2023-04-28T09:05:13.130Z,34.71
2023-04-28T09:07:41.534Z,34.51
2023-04-28T09:10:26.763Z,34.17
2023-04-28T09:12:56.002Z,33.02
2023-04-28T09:15:32.634Z,33.24
2023-04-28T09:18:02.762Z,34.07
2023-04-28T09:20:31.927Z,34.05
2023-04-28T09:23:14.579Z,34.00
2023-04-28T09:25:41.637Z,37.21
2023-04-28T09:28:22.277Z,35.42
2023-04-28T09:30:49.262Z,34.38
2023-04-28T09:35:45.638Z,34.42
2023-04-28T09:38:13.066Z,34.67
2023-04-28T09:41:00.015Z,36.33
2023-04-28T09:43:28.467Z,36.24
2023-04-28T09:45:57.278Z,34.19
2023-04-28T09:48:35.506Z,34.22
2023-04-28T09:51:08.157Z,33.49
2023-04-28T09:53:38.400Z,33.82
2023-04-28T09:56:05.649Z,40.49
2023-04-28T09:58:35.582Z,37.81
2023-04-28T10:01:03.622Z,36.04
2023-04-28T10:03:31.740Z,33.85
2023-04-28T10:06:00.121Z,34.79
2023-04-28T10:08:28.247Z,33.32
2023-04-28T10:10:57.065Z,35.35
2023-04-28T10:13:24.783Z,33.63
2023-04-28T10:15:55.840Z,33.05
2023-04-28T10:18:24.482Z,37.33
2023-04-28T10:20:58.956Z,36.34
2023-04-28T10:23:42.705Z,33.45
2023-04-28T10:26:14.604Z,32.77
2023-04-28T10:28:49.051Z,33.41
2023-04-28T10:31:18.237Z,36.87
2023-04-28T10:33:45.455Z,35.02
2023-04-28T10:36:36.261Z,35.25
2023-04-28T10:39:12.773Z,36.71
2023-04-28T10:41:39.803Z,35.58
2023-04-28T10:44:28.413Z,36.38
2023-04-28T10:47:07.102Z,34.71
2023-04-28T10:49:58.421Z,35.94
2023-04-28T10:52:51.717Z,35.50
2023-04-28T10:55:36.739Z,33.94
2023-04-28T10:58:29.857Z,33.70
2023-04-28T11:01:22.882Z,33.06
2023-04-28T11:04:00.466Z,34.90
2023-04-28T11:06:42.041Z,36.34
2023-04-28T11:09:15.085Z,36.94
2023-04-28T11:12:00.536Z,36.66
2023-04-28T11:14:30.348Z,35.21
2023-04-28T11:17:03.335Z,37.07
2023-04-28T11:19:38.090Z,37.42
2023-04-28T11:22:11.963Z,34.37
2023-04-28T11:24:38.873Z,35.52
2023-04-28T11:27:06.190Z,35.19
2023-04-28T11:29:38.538Z,34.14
2023-04-28T11:32:10.347Z,33.54
2023-04-28T11:34:38.189Z,35.14
2023-04-28T11:37:07.381Z,34.67
2023-04-28T11:39:35.071Z,32.45
2023-04-28T11:42:03.611Z,32.63
2023-04-28T11:44:31.990Z,31.95
2023-04-28T11:47:01.792Z,35.61
2023-04-28T11:49:31.181Z,34.42
2023-04-28T11:52:00.572Z,34.92
2023-04-28T11:54:29.230Z,35.67
2023-04-28T11:56:57.906Z,33.03
2023-04-28T11:59:31.349Z,33.01
2023-04-28T12:02:07.051Z,34.78
2023-04-28T12:04:39.042Z,32.99
2023-04-28T12:07:16.670Z,32.76
2023-04-28T12:09:49.039Z,32.26
2023-04-28T12:12:39.993Z,32.67
2023-04-28T12:15:17.510Z,33.08
2023-04-28T12:17:45.927Z,32.52
2023-04-28T12:20:39.331Z,33.36
2023-04-28T12:23:08.119Z,31.95
2023-04-28T12:25:44.667Z,33.76
2023-04-28T12:28:11.693Z,34.33
2023-04-28T12:30:42.739Z,37.20
2023-04-28T12:33:26.188Z,33.82
2023-04-28T12:35:57.483Z,34.24
2023-04-28T12:38:25.133Z,35.04
2023-04-28T12:40:52.803Z,32.77
2023-04-28T12:43:19.882Z,30.93
2023-04-28T12:45:46.941Z,31.32
2023-04-28T12:48:13.886Z,33.69
2023-04-28T12:50:40.783Z,33.58
2023-04-28T12:53:07.720Z,34.02
2023-04-28T12:55:34.839Z,33.33
2023-04-28T12:58:01.791Z,32.40
2023-04-28T13:00:28.714Z,33.74
2023-04-28T13:02:55.844Z,32.48
2023-04-28T13:05:23.579Z,30.62
2023-04-28T13:07:51.160Z,30.47
2023-04-28T13:10:19.198Z,30.24
2023-04-28T13:12:46.073Z,31.81
2023-04-28T13:15:13.072Z,32.02
2023-04-28T13:17:40.321Z,31.40
2023-04-28T13:20:07.904Z,30.48
2023-04-28T13:22:34.873Z,30.45
2023-04-28T13:25:01.818Z,32.57
2023-04-28T13:27:30.668Z,29.95
2023-04-28T13:29:59.454Z,29.76
2023-04-28T13:32:28.300Z,30.47
2023-04-28T13:34:55.713Z,30.07
2023-04-28T13:37:22.590Z,29.60
2023-04-28T13:39:49.518Z,31.16
2023-04-28T13:42:16.648Z,30.74
2023-04-28T13:44:43.758Z,32.26
2023-04-28T13:47:11.152Z,30.00
2023-04-28T13:49:39.817Z,29.13
2023-04-28T13:52:06.910Z,29.45
2023-04-28T13:54:33.766Z,29.62
2023-04-28T13:57:01.482Z,31.63
2023-04-28T13:59:28.484Z,30.73
2023-04-28T14:01:55.373Z,31.13
2023-04-28T14:04:23.318Z,28.99
2023-04-28T14:06:50.801Z,29.43
2023-04-28T14:09:17.736Z,31.58
2023-04-28T14:11:44.863Z,30.15
2023-04-28T14:14:12.295Z,30.34
2023-04-28T14:16:39.353Z,28.67
2023-04-28T14:19:07.385Z,28.27
2023-04-28T14:21:35.393Z,31.46
2023-04-28T14:24:02.398Z,30.10
2023-04-28T14:26:29.281Z,29.83
2023-04-28T14:28:56.289Z,29.90
2023-04-28T14:31:23.295Z,30.54
2023-04-28T14:33:50.322Z,31.86
2023-04-28T14:36:17.295Z,31.59
2023-04-28T14:38:44.744Z,32.09
2023-04-28T14:41:11.827Z,31.33
2023-04-28T14:43:38.768Z,30.77
2023-04-28T14:46:06.048Z,31.08
2023-04-28T14:48:34.409Z,30.69
2023-04-28T14:51:01.817Z,30.13
2023-04-28T14:53:28.886Z,33.33
2023-04-28T14:56:02.019Z,30.85
2023-04-28T14:58:37.980Z,31.30
2023-04-28T15:01:05.086Z,31.90
2023-04-28T15:03:32.828Z,31.67
2023-04-28T15:06:00.742Z,32.13
2023-04-28T15:08:29.456Z,31.66
2023-04-28T15:10:56.993Z,33.07
2023-04-28T15:13:25.436Z,31.55
2023-04-28T15:15:52.390Z,33.01
2023-04-28T15:18:19.568Z,32.65
2023-04-28T15:20:46.836Z,32.95
2023-04-28T15:23:14.480Z,32.88
2023-04-28T15:25:41.425Z,31.73
2023-04-28T15:28:09.182Z,32.52
2023-04-28T15:30:36.621Z,32.27
2023-04-28T15:33:04.459Z,32.86
2023-04-28T15:35:32.860Z,32.64
2023-04-28T15:38:00.382Z,31.99
2023-04-28T15:40:27.358Z,33.99
2023-04-28T15:42:54.261Z,33.65
2023-04-28T15:45:22.084Z,32.93
2023-04-28T15:47:51.050Z,33.88
2023-04-28T15:50:19.757Z,33.86
2023-04-28T15:52:50.158Z,34.04
2023-04-28T15:55:19.845Z,35.29
2023-04-28T15:57:48.362Z,32.91
2023-04-28T16:00:16.648Z,32.13
2023-04-28T16:02:44.128Z,34.25
2023-04-28T16:05:11.598Z,35.47
2023-04-28T16:07:41.245Z,34.83
2023-04-28T16:10:13.488Z,34.50
2023-04-28T16:12:42.055Z,34.55
2023-04-28T16:15:11.425Z,37.98
2023-04-28T16:17:39.601Z,35.51
2023-04-28T16:20:08.474Z,36.29
2023-04-28T16:22:36.234Z,36.27
2023-04-28T16:25:06.830Z,36.29
2023-04-28T16:27:34.134Z,35.89
2023-04-28T16:30:01.263Z,35.81
2023-04-28T16:32:29.072Z,35.45
2023-04-28T16:34:58.873Z,36.71
2023-04-28T16:37:26.407Z,36.85
2023-04-28T16:39:53.357Z,36.50
2023-04-28T16:42:23.204Z,37.18
2023-04-28T16:44:52.777Z,35.93
2023-04-28T16:47:20.548Z,37.41
2023-04-28T16:49:48.312Z,36.34
2023-04-28T16:52:15.799Z,36.26
2023-04-28T16:54:42.689Z,36.96
2023-04-28T16:57:09.709Z,37.06
2023-04-28T16:59:37.589Z,36.89
2023-04-28T17:02:04.932Z,37.16
2023-04-28T17:04:32.219Z,37.60
2023-04-28T17:06:59.783Z,38.22
2023-04-28T17:09:27.748Z,38.11
2023-04-28T17:11:55.147Z,38.66
2023-04-28T17:14:22.347Z,38.70
2023-04-28T17:16:49.410Z,39.38
2023-04-28T17:19:17.008Z,39.24
2023-04-28T17:21:44.003Z,39.13
2023-04-28T17:24:10.964Z,39.27
2023-04-28T17:26:37.932Z,39.44
2023-04-28T17:29:05.132Z,39.12
2023-04-28T17:31:32.238Z,40.45
2023-04-28T17:34:01.912Z,40.75
2023-04-28T17:36:29.125Z,39.85
2023-04-28T17:38:56.297Z,40.62
2023-04-28T17:41:23.443Z,40.35
2023-04-28T17:43:54.024Z,43.25
2023-04-28T17:46:22.296Z,41.87
2023-04-28T17:48:49.699Z,42.73
2023-04-28T17:51:16.667Z,42.80
2023-04-28T17:53:43.610Z,43.34
2023-04-28T17:56:11.097Z,41.81
2023-04-28T17:58:38.043Z,42.12
2023-04-28T18:01:06.792Z,42.17
2023-04-28T18:03:41.600Z,42.61
2023-04-28T18:06:09.063Z,41.68
2023-04-28T18:08:37.022Z,43.20
2023-04-28T18:11:04.262Z,42.52
2023-04-28T18:13:31.782Z,43.42
2023-04-28T18:15:58.723Z,43.73
2023-04-28T18:18:26.326Z,42.26
2023-04-28T18:20:59.429Z,42.69
2023-04-28T18:23:27.526Z,43.17
2023-04-28T18:25:54.486Z,41.81
2023-04-28T18:28:21.529Z,43.14
2023-04-28T18:30:48.532Z,43.73
2023-04-28T18:33:17.219Z,44.32
2023-04-28T18:35:44.507Z,45.22
2023-04-28T18:38:11.375Z,45.43
2023-04-28T18:40:39.369Z,45.87
2023-04-28T18:43:07.493Z,45.80
2023-04-28T18:45:41.417Z,43.34
2023-04-28T18:48:09.730Z,44.37
2023-04-28T18:50:37.188Z,44.66
2023-04-28T18:53:05.215Z,45.29
2023-04-28T18:55:35.105Z,46.10
2023-04-28T18:58:02.383Z,45.05
2023-04-28T19:00:29.616Z,44.43
2023-04-28T19:02:56.904Z,43.06
2023-04-28T19:05:24.202Z,43.85
2023-04-28T19:07:51.219Z,44.41
2023-04-28T19:10:18.290Z,46.97
2023-04-28T19:12:45.226Z,44.92
2023-04-28T19:15:12.257Z,44.95
2023-04-28T19:17:39.651Z,44.40
2023-04-28T19:20:07.399Z,44.52
2023-04-28T19:22:40.388Z,43.91
2023-04-28T19:25:08.010Z,43.74
2023-04-28T19:27:37.206Z,43.96
2023-04-28T19:30:06.531Z,43.69
2023-04-28T19:32:33.707Z,45.11
2023-04-28T19:35:00.956Z,45.12
2023-04-28T19:37:28.130Z,44.83
2023-04-28T19:39:55.402Z,45.14
2023-04-28T19:42:22.447Z,45.82
2023-04-28T19:44:55.685Z,46.10
2023-04-28T19:47:24.209Z,44.94
2023-04-28T19:49:52.252Z,45.56
2023-04-28T19:52:21.172Z,45.92
2023-04-28T19:54:49.454Z,46.21
2023-04-28T19:57:16.949Z,45.52
2023-04-28T19:59:43.954Z,44.99
2023-04-28T20:02:11.154Z,45.90
2023-04-28T20:04:38.721Z,46.60
2023-04-28T20:07:06.677Z,47.52
2023-04-28T20:09:38.106Z,46.53
2023-04-28T20:12:07.819Z,47.14
2023-04-28T20:14:35.529Z,47.25
2023-04-28T20:17:04.017Z,47.60
2023-04-28T20:19:31.805Z,46.78
2023-04-28T20:21:58.832Z,47.37
2023-04-28T20:24:26.142Z,47.19
2023-04-28T20:26:54.802Z,48.06
2023-04-28T20:29:21.982Z,48.54
2023-04-28T20:31:49.006Z,48.91
2023-04-28T20:34:15.949Z,47.72
2023-04-28T20:36:43.244Z,50.25
2023-04-28T20:39:12.458Z,49.04
2023-04-28T20:41:41.147Z,49.10
2023-04-28T20:44:08.751Z,49.46
2023-04-28T20:46:36.350Z,49.69
2023-04-28T20:49:04.609Z,49.36
2023-04-28T20:51:34.351Z,49.05
2023-04-28T20:54:01.638Z,48.18
2023-04-28T20:56:28.866Z,48.85
2023-04-28T20:58:56.057Z,49.21
2023-04-28T21:01:23.286Z,48.95
2023-04-28T21:03:50.636Z,49.26
2023-04-28T21:06:17.840Z,48.90
2023-04-28T21:08:45.385Z,48.66
2023-04-28T21:11:16.433Z,49.85
2023-04-28T21:13:44.739Z,49.65
2023-04-28T21:16:19.403Z,50.38
2023-04-28T21:18:48.038Z,49.99
2023-04-28T21:21:15.104Z,50.09
2023-04-28T21:23:42.970Z,50.75
2023-04-28T21:26:10.591Z,50.91
2023-04-28T21:28:37.948Z,50.88
2023-04-28T21:31:05.277Z,51.40
2023-04-28T21:33:32.489Z,51.05
2023-04-28T21:36:03.808Z,50.87
2023-04-28T21:38:30.748Z,51.52
2023-04-28T21:40:57.665Z,52.14
2023-04-28T21:43:24.645Z,52.25
2023-04-28T21:45:52.442Z,52.98
2023-04-28T21:48:19.363Z,51.09
2023-04-28T21:50:47.540Z,51.49
2023-04-28T21:53:14.438Z,51.40
2023-04-28T21:55:41.757Z,51.18
2023-04-28T21:58:08.696Z,51.49
2023-04-28T22:00:43.427Z,51.39
2023-04-28T22:03:11.214Z,51.08
2023-04-28T22:05:40.493Z,52.04
2023-04-28T22:08:07.940Z,50.94
2023-04-28T22:10:35.489Z,50.67
2023-04-28T22:13:03.317Z,52.77
2023-04-28T22:15:30.272Z,51.68
2023-04-28T22:17:58.443Z,52.33
2023-04-28T22:20:25.524Z,52.86
2023-04-28T22:22:54.237Z,53.30
2023-04-28T22:25:21.569Z,52.90
2023-04-28T22:27:48.640Z,52.86
2023-04-28T22:30:15.961Z,53.13
2023-04-28T22:32:47.383Z,53.89
2023-04-28T22:35:14.833Z,52.72
2023-04-28T22:37:41.808Z,53.77
2023-04-28T22:40:09.544Z,53.95
2023-04-28T22:42:37.557Z,54.11
2023-04-28T22:45:06.803Z,54.11
2023-04-28T22:47:34.794Z,55.48
2023-04-28T22:50:06.020Z,55.05
2023-04-28T22:52:33.934Z,53.94
2023-04-28T22:55:01.180Z,54.80
2023-04-28T22:57:28.366Z,54.99
2023-04-28T22:59:55.573Z,56.01
2023-04-28T23:02:23.454Z,55.59
2023-04-28T23:04:51.305Z,55.78
2023-04-28T23:07:18.363Z,57.03
2023-04-28T23:09:45.401Z,56.22
2023-04-28T23:12:12.377Z,55.96
2023-04-28T23:14:39.327Z,57.05
2023-04-28T23:17:06.361Z,57.85
2023-04-28T23:19:33.364Z,58.17
2023-04-28T23:22:00.295Z,57.40
2023-04-28T23:24:27.581Z,59.97
2023-04-28T23:26:54.546Z,59.77
2023-04-28T23:29:21.639Z,59.65
2023-04-28T23:31:52.717Z,58.75
2023-04-28T23:34:19.732Z,59.01
2023-04-28T23:36:46.770Z,58.75
2023-04-28T23:39:13.784Z,58.29
2023-04-28T23:41:41.265Z,59.65
2023-04-28T23:44:08.582Z,59.14
2023-04-28T23:46:35.519Z,58.78
2023-04-28T23:49:02.465Z,61.32
2023-04-28T23:51:29.415Z,62.87
2023-04-28T23:53:56.440Z,63.71
2023-04-28T23:56:23.749Z,64.66
2023-04-28T23:58:51.380Z,66.75
